Time;durP1;ratioP1;P1;durP2;ratioP2;P2;SDS_P1;SDS_P2;PMS_P1;PMS_P2;Temp;Humidity;BMP_temperature;BMP_pressure;BME280_temperature;BME280_humidity;BME280_pressure;Samples;Min_cycle;Max_cycle;Signal;HPM_P1;HPM_P2
2024/03/09 00:01:18;;;;;;;15.20;5.80;;;;;;;23.54;32.84;98406.44;7391081;19;20520;-89
2024/03/09 00:03:44;;;;;;;14.82;3.88;;;;;;;23.23;32.90;98403.44;7389117;19;20049;-87
2024/03/09 00:06:12;;;;;;;24.73;4.57;;;;;;;22.06;34.10;98411.50;7387704;19;20083;-88
2024/03/09 00:08:38;;;;;;;21.40;5.13;;;;;;;20.02;37.00;98407.25;7392344;19;20031;-88
2024/03/09 00:11:07;;;;;;;23.60;4.00;;;;;;;20.05;36.81;98404.03;7388554;19;20023;-88
2024/03/09 00:13:35;;;;;;;21.73;4.30;;;;;;;20.12;36.89;98394.72;7389795;19;20014;-88
2024/03/09 00:16:01;;;;;;;14.85;4.78;;;;;;;21.53;35.41;98371.78;7387745;19;20807;-89
2024/03/09 00:18:27;;;;;;;12.63;5.82;;;;;;;20.12;37.03;98379.88;7389233;19;20018;-89
2024/03/09 00:20:53;;;;;;;8.63;3.58;;;;;;;19.94;37.07;98376.22;7389344;19;20025;-89
2024/03/09 00:23:21;;;;;;;7.63;4.40;;;;;;;19.99;37.61;98380.16;7388710;19;20042;-89
2024/03/09 00:25:48;;;;;;;19.30;6.97;;;;;;;19.07;38.50;98373.44;7388435;19;20026;-88
2024/03/09 00:28:14;;;;;;;26.45;6.15;;;;;;;19.66;38.92;98366.03;7394194;19;20014;-89
2024/03/09 00:30:42;;;;;;;21.15;4.40;;;;;;;20.29;37.47;98369.38;7387937;19;20014;-90
2024/03/09 00:33:08;;;;;;;8.02;4.88;;;;;;;19.48;38.59;98361.63;7390379;19;20030;-91
2024/03/09 00:35:35;;;;;;;7.47;4.30;;;;;;;21.57;36.53;98355.16;7390545;19;20493;-90
2024/03/09 00:38:01;;;;;;;23.10;5.38;;;;;;;22.02;35.37;98342.41;7395694;19;20019;-89
2024/03/09 00:40:31;;;;;;;20.63;5.32;;;;;;;19.77;38.15;98352.78;7399166;19;20027;-91
2024/03/09 00:42:59;;;;;;;8.18;3.80;;;;;;;19.96;38.29;98353.03;7401050;19;20010;-90
2024/03/09 00:45:26;;;;;;;15.00;4.57;;;;;;;19.83;38.62;98344.84;7397470;19;20022;-91
2024/03/09 00:47:52;;;;;;;22.33;5.40;;;;;;;19.78;39.00;98343.75;7398846;19;20015;-91
2024/03/09 00:50:21;;;;;;;17.98;4.68;;;;;;;20.61;37.63;98345.88;7399095;19;20411;-91
2024/03/09 00:52:47;;;;;;;21.80;7.05;;;;;;;19.83;38.73;98344.84;7402942;19;20037;-92
2024/03/09 00:55:16;;;;;;;8.35;4.22;;;;;;;18.53;40.84;98346.72;7401041;19;20507;-92
2024/03/09 00:57:47;;;;;;;14.48;5.20;;;;;;;19.09;40.32;98331.31;7400767;19;20107;-92
2024/03/09 01:00:16;;;;;;;18.60;5.05;;;;;;;19.54;39.97;98327.50;7398508;19;20101;-91
2024/03/09 01:02:44;;;;;;;10.95;5.13;;;;;;;18.56;41.26;98327.91;7399287;19;20015;-91
2024/03/09 01:05:11;;;;;;;13.80;4.88;;;;;;;19.03;41.64;98311.03;7398739;19;20018;-92
2024/03/09 01:07:38;;;;;;;14.25;3.53;;;;;;;19.25;41.35;98327.06;7401355;19;20015;-89
2024/03/09 01:10:08;;;;;;;8.38;3.92;;;;;;;19.16;41.30;98313.59;7404200;19;20015;-86
2024/03/09 01:12:36;;;;;;;10.90;6.65;;;;;;;19.51;40.88;98303.25;7404981;19;20025;-85
2024/03/09 01:15:03;;;;;;;7.63;4.20;;;;;;;19.06;41.10;98298.56;7398697;19;20011;-85
2024/03/09 01:17:29;;;;;;;13.10;6.20;;;;;;;18.10;43.28;98294.13;7397346;19;20018;-84
2024/03/09 01:19:55;;;;;;;8.25;4.43;;;;;;;17.25;45.65;98287.47;7396507;19;20417;-85
2024/03/09 01:22:22;;;;;;;22.52;6.07;;;;;;;19.10;43.15;98273.53;7395127;19;20018;-84
2024/03/09 01:24:49;;;;;;;15.85;6.22;;;;;;;19.47;42.40;98257.72;7392622;19;20022;-84
2024/03/09 01:27:16;;;;;;;12.85;5.25;;;;;;;18.48;43.55;98256.69;7393559;19;20025;-86
2024/03/09 01:29:47;;;;;;;14.20;6.10;;;;;;;18.96;43.46;98266.66;7392835;19;20328;-84
2024/03/09 01:32:14;;;;;;;14.75;4.68;;;;;;;18.14;44.67;98274.78;7391648;19;20018;-86
2024/03/09 01:34:41;;;;;;;16.02;6.70;;;;;;;18.30;44.61;98269.84;7391098;19;20019;-85
2024/03/09 01:37:10;;;;;;;25.55;4.93;;;;;;;18.07;45.68;98284.00;7395820;19;20038;-85
2024/03/09 01:39:39;;;;;;;8.75;4.45;;;;;;;18.49;45.09;98272.28;7391600;19;20039;-84
2024/03/09 01:42:10;;;;;;;24.23;6.15;;;;;;;18.91;44.18;98270.44;7393673;19;20035;-84
2024/03/09 01:44:36;;;;;;;18.30;6.38;;;;;;;18.90;44.28;98264.06;7391057;19;20017;-84
2024/03/09 01:47:07;;;;;;;17.08;5.53;;;;;;;18.99;43.92;98268.34;7391973;19;20086;-85
2024/03/09 01:49:36;;;;;;;16.47;5.97;;;;;;;18.69;44.45;98255.09;7391163;19;20028;-84
2024/03/09 01:52:05;;;;;;;10.10;4.85;;;;;;;18.96;44.14;98265.91;7389915;19;20260;-84
2024/03/09 01:54:34;;;;;;;21.02;5.40;;;;;;;20.55;41.64;98259.78;7391810;19;20083;-84
2024/03/09 01:57:01;;;;;;;9.55;3.75;;;;;;;18.96;44.01;98248.97;7396539;19;20022;-85
2024/03/09 01:59:31;;;;;;;13.93;5.05;;;;;;;18.93;43.56;98250.84;7393210;19;20026;-85
2024/03/09 02:01:58;;;;;;;13.05;5.65;;;;;;;17.53;47.30;98253.59;7392166;19;20023;-85
2024/03/09 02:04:26;;;;;;;18.05;5.55;;;;;;;17.99;47.04;98241.00;7389506;19;20025;-85
2024/03/09 02:06:54;;;;;;;15.15;4.88;;;;;;;18.20;46.87;98221.03;7388842;19;20086;-85
2024/03/09 02:09:21;;;;;;;17.13;4.85;;;;;;;18.40;46.31;98220.03;7388154;19;20018;-85
2024/03/09 02:11:49;;;;;;;16.05;6.38;;;;;;;17.75;48.47;98209.84;7388398;19;20007;-85
2024/03/09 02:14:16;;;;;;;34.55;4.82;;;;;;;19.37;45.05;98215.25;7389213;19;20468;-85
2024/03/09 02:16:42;;;;;;;30.17;5.55;;;;;;;18.36;46.17;98202.78;7390924;19;20030;-85
2024/03/09 02:19:13;;;;;;;12.40;4.63;;;;;;;18.98;45.39;98210.41;7390183;19;20023;-86
2024/03/09 02:21:42;;;;;;;15.70;3.35;;;;;;;19.37;44.78;98203.22;7391248;19;20014;-85
2024/03/09 02:24:09;;;;;;;21.15;4.88;;;;;;;20.49;42.30;98203.44;7390395;19;20015;-85
2024/03/09 02:26:39;;;;;;;26.35;7.55;;;;;;;20.40;42.10;98192.81;7391866;19;20041;-85
2024/03/09 02:29:05;;;;;;;9.05;4.53;;;;;;;20.46;41.69;98193.31;7390261;19;20049;-85
2024/03/09 02:31:32;;;;;;;18.30;6.03;;;;;;;20.30;42.09;98178.63;7390018;19;20014;-85
2024/03/09 02:33:58;;;;;;;9.30;4.43;;;;;;;20.47;41.33;98168.59;7391479;19;20010;-85
2024/03/09 02:36:26;;;;;;;18.00;5.30;;;;;;;20.51;41.59;98163.28;7392817;19;20432;-85
2024/03/09 02:38:52;;;;;;;8.40;4.93;;;;;;;20.48;41.44;98162.38;7392107;19;20124;-85
2024/03/09 02:41:19;;;;;;;9.63;4.18;;;;;;;20.37;41.42;98165.72;7390470;19;20018;-85
2024/03/09 02:43:49;;;;;;;9.75;4.80;;;;;;;21.86;39.46;98143.47;7389843;19;20081;-85
2024/03/09 02:46:15;;;;;;;12.43;5.20;;;;;;;22.24;38.73;98142.75;7387893;19;20015;-85
2024/03/09 02:48:45;;;;;;;42.50;6.13;;;;;;;22.65;37.94;98120.94;7389880;19;20038;-84
2024/03/09 02:51:13;;;;;;;13.98;6.40;;;;;;;22.56;37.70;98125.25;7391348;19;20074;-85
2024/03/09 02:53:39;;;;;;;5.57;3.47;;;;;;;20.90;39.73;98142.34;7390059;19;20018;-85
2024/03/09 02:56:09;;;;;;;5.97;3.10;;;;;;;21.17;40.16;98133.88;7388114;19;20039;-85
2024/03/09 02:58:37;;;;;;;12.68;5.88;;;;;;;20.41;40.40;98123.63;7391668;19;20017;-85
2024/03/09 03:01:07;;;;;;;18.65;5.78;;;;;;;19.39;41.92;98125.09;7388080;19;20018;-85
2024/03/09 03:06:19;;;;;;;8.68;3.97;;;;;;;18.90;43.44;98123.00;7387671;19;20362;-85
2024/03/09 03:08:49;;;;;;;22.20;5.93;;;;;;;18.13;44.86;98121.13;7388615;19;20022;-85
2024/03/09 03:11:17;;;;;;;14.88;3.90;;;;;;;18.83;43.92;98111.75;7394374;19;20045;-85
2024/03/09 03:13:45;;;;;;;17.55;7.40;;;;;;;19.22;43.77;98115.78;7389916;19;20043;-85
2024/03/09 03:16:26;;;;;;;9.27;4.25;;;;;;;19.16;43.63;98110.41;7387997;19;20014;-85
2024/03/09 03:18:53;;;;;;;10.98;4.57;;;;;;;19.18;43.48;98113.38;7388923;19;20513;-85
2024/03/09 03:21:19;;;;;;;17.70;6.38;;;;;;;19.27;43.51;98115.56;7388635;19;20090;-85
2024/03/09 03:23:48;;;;;;;11.60;4.28;;;;;;;18.24;45.15;98113.56;7392476;19;20345;-85
2024/03/09 03:29:17;;;;;;;10.05;4.18;;;;;;;20.63;41.45;98111.25;7390885;19;20002;-55
2024/03/09 03:31:44;;;;;;;14.13;5.72;;;;;;;19.40;43.26;98114.53;7388111;19;20017;-55
2024/03/09 03:34:10;;;;;;;8.25;4.60;;;;;;;20.62;41.43;98101.28;7388632;19;20354;-56
2024/03/09 03:36:38;;;;;;;11.70;5.15;;;;;;;19.90;42.47;98112.34;7392427;19;20031;-55
2024/03/09 03:39:04;;;;;;;13.55;3.47;;;;;;;19.80;41.93;98103.03;7388084;19;20015;-55
2024/03/09 03:41:30;;;;;;;11.45;4.95;;;;;;;21.35;40.80;98090.72;7387423;19;20007;-55
2024/03/09 03:43:56;;;;;;;11.23;4.03;;;;;;;20.97;40.51;98085.66;7389716;19;20074;-55
2024/03/09 03:46:23;;;;;;;12.00;3.95;;;;;;;20.37;41.67;98081.66;7394602;19;20026;-55
2024/03/09 03:48:49;;;;;;;20.02;5.00;;;;;;;19.39;42.76;98074.28;7392995;19;20013;-55
2024/03/09 03:51:16;;;;;;;17.15;5.38;;;;;;;17.57;45.88;98073.81;7392181;19;20010;-55
2024/03/09 03:53:43;;;;;;;17.17;5.70;;;;;;;19.86;43.06;98080.94;7392221;19;20033;-55
2024/03/09 03:56:09;;;;;;;15.20;5.10;;;;;;;18.50;45.77;98096.94;7392463;19;20038;-55
2024/03/09 03:58:37;;;;;;;6.68;4.40;;;;;;;20.10;42.82;98097.03;7394483;19;20006;-55
2024/03/09 04:01:04;;;;;;;15.65;3.78;;;;;;;19.58;43.30;98099.88;7391698;19;20014;-55
2024/03/09 04:03:33;;;;;;;28.73;7.75;;;;;;;19.00;44.47;98105.44;7392268;19;20010;-55
2024/03/09 04:06:01;;;;;;;7.32;5.32;;;;;;;19.52;44.01;98096.53;7392736;19;20014;-55
2024/03/09 04:08:27;;;;;;;15.23;5.07;;;;;;;19.99;42.84;98080.59;7391275;19;20019;-55
2024/03/09 04:10:54;;;;;;;31.05;5.68;;;;;;;20.04;43.18;98088.06;7395155;19;20061;-55
2024/03/09 04:13:23;;;;;;;8.43;3.50;;;;;;;19.43;43.70;98076.66;7399509;19;20062;-55
2024/03/09 04:15:51;;;;;;;30.85;7.85;;;;;;;20.88;43.10;98066.56;7399299;19;20018;-55
2024/03/09 04:18:18;;;;;;;37.08;5.18;;;;;;;24.76;36.58;98067.00;7399082;19;20010;-55
2024/03/09 04:20:45;;;;;;;16.20;5.00;;;;;;;20.78;40.62;98062.94;7399295;19;20006;-55
2024/03/09 04:23:15;;;;;;;16.58;5.32;;;;;;;18.62;44.51;98069.03;7397848;19;20041;-55
2024/03/09 04:25:44;;;;;;;15.18;3.67;;;;;;;18.40;45.34;98058.63;7399408;19;20019;-55
2024/03/09 04:28:20;;;;;;;26.88;4.85;;;;;;;18.14;46.13;98057.84;7403452;19;20014;-55
2024/03/09 04:30:50;;;;;;;13.02;4.80;;;;;;;18.03;47.04;98049.06;7398692;19;20470;-55
2024/03/09 04:33:20;;;;;;;18.48;6.57;;;;;;;18.48;46.36;98053.72;7398840;19;20034;-55
2024/03/09 04:35:49;;;;;;;18.33;6.22;;;;;;;19.72;44.12;98048.69;7401475;19;20015;-55
2024/03/09 04:38:16;;;;;;;17.80;5.55;;;;;;;19.49;44.27;98038.38;7398800;19;20029;-55
2024/03/09 04:40:48;;;;;;;25.10;6.75;;;;;;;19.32;44.80;98041.19;7398082;19;20036;-55
2024/03/09 04:43:15;;;;;;;12.57;5.68;;;;;;;19.34;44.83;98041.38;7397025;19;20372;-55
2024/03/09 04:45:41;;;;;;;16.17;6.90;;;;;;;19.53;44.40;98041.53;7397882;19;20011;-55
2024/03/09 04:48:09;;;;;;;15.13;5.03;;;;;;;19.68;44.22;98041.38;7398821;19;20018;-55
2024/03/09 04:50:38;;;;;;;6.05;3.47;;;;;;;19.36;44.49;98052.09;7398969;19;20015;-55
2024/03/09 04:53:07;;;;;;;15.23;4.93;;;;;;;18.09;47.52;98047.53;7397958;19;20037;-55
2024/03/09 04:55:36;;;;;;;13.77;5.15;;;;;;;17.89;48.61;98045.72;7398850;19;20003;-55
2024/03/09 04:58:13;;;;;;;8.10;3.83;;;;;;;18.03;49.95;98044.19;7400417;19;20018;-55
2024/03/09 05:00:40;;;;;;;18.98;4.50;;;;;;;18.35;48.87;98048.31;7396692;19;20473;-55
2024/03/09 05:03:07;;;;;;;18.10;4.75;;;;;;;16.76;53.78;98051.56;7394702;19;20011;-55
2024/03/09 05:05:34;;;;;;;14.65;5.07;;;;;;;17.09;54.07;98038.41;7397170;19;20025;-55
2024/03/09 05:08:02;;;;;;;7.47;2.30;;;;;;;17.11;55.02;98030.13;7402729;19;20019;-54
2024/03/09 05:10:30;;;;;;;18.80;6.50;;;;;;;17.42;54.46;98037.22;7396508;19;20010;-55
2024/03/09 05:12:56;;;;;;;18.63;6.95;;;;;;;16.74;57.42;98031.66;7397699;19;20330;-55
2024/03/09 05:15:24;;;;;;;9.00;4.68;;;;;;;16.70;59.90;98031.28;7396949;19;20029;-55
2024/03/09 05:17:56;;;;;;;12.75;6.57;;;;;;;18.59;53.86;98033.53;7395911;19;20015;-55
2024/03/09 05:20:23;;;;;;;20.63;7.28;;;;;;;19.80;49.28;98032.41;7397307;19;20014;-55
2024/03/09 05:22:53;;;;;;;11.75;4.53;;;;;;;17.53;54.13;98028.41;7395275;19;20045;-55
2024/03/09 05:25:21;;;;;;;5.03;3.47;;;;;;;17.60;55.63;98026.88;7397106;19;20038;-55
2024/03/09 05:27:48;;;;;;;12.40;4.53;;;;;;;17.86;54.71;98029.97;7400269;19;20464;-55
2024/03/09 05:30:18;;;;;;;10.68;4.57;;;;;;;16.97;57.51;98021.19;7397293;19;20055;-55
2024/03/09 05:32:56;;;;;;;7.78;4.93;;;;;;;17.40;57.40;98020.16;7396671;19;20034;-55
2024/03/09 05:35:30;;;;;;;13.15;5.30;;;;;;;17.34;57.35;98026.00;7399265;19;20495;-55
2024/03/09 05:37:59;;;;;;;6.90;4.43;;;;;;;17.38;57.76;98039.69;7396904;19;20092;-55
2024/03/09 05:40:30;;;;;;;16.10;5.63;;;;;;;17.81;56.39;98044.25;7396682;19;20066;-55
2024/03/09 05:43:04;;;;;;;19.40;6.32;;;;;;;17.58;56.68;98033.09;7398299;19;21927;-55
2024/03/09 05:45:30;;;;;;;12.57;3.53;;;;;;;18.18;54.50;98037.72;7397442;19;20501;-55
2024/03/09 05:47:58;;;;;;;17.80;5.03;;;;;;;17.88;55.21;98032.22;7395563;19;20039;-55
2024/03/09 05:50:29;;;;;;;14.05;7.22;;;;;;;17.16;57.95;98037.63;7395844;19;20010;-55
2024/03/09 05:52:57;;;;;;;12.80;7.60;;;;;;;17.17;59.89;98030.72;7395668;19;20351;-55
2024/03/09 05:55:24;;;;;;;13.73;6.03;;;;;;;17.84;56.13;98029.06;7395863;19;20097;-55
2024/03/09 05:57:52;;;;;;;12.98;4.95;;;;;;;16.72;61.51;98028.66;7400176;19;20018;-55
2024/03/09 06:00:27;;;;;;;12.88;4.95;;;;;;;20.45;50.37;98022.13;7395218;19;20332;-55
2024/03/09 06:02:54;;;;;;;23.67;6.15;;;;;;;18.20;53.86;98040.69;7396663;19;20006;-55
2024/03/09 06:05:28;;;;;;;22.27;5.68;;;;;;;19.99;50.73;98033.28;7394582;19;20471;-55
2024/03/09 06:07:55;;;;;;;6.93;4.28;;;;;;;18.23;54.54;98033.19;7395999;19;20501;-55
2024/03/09 06:10:21;;;;;;;30.38;5.13;;;;;;;18.32;54.25;98035.38;7395703;19;20014;-55
2024/03/09 06:12:49;;;;;;;16.02;4.82;;;;;;;17.88;55.05;98038.59;7395463;19;20553;-55
2024/03/09 06:15:16;;;;;;;11.30;5.80;;;;;;;18.01;55.25;98029.91;7396658;19;20010;-55
2024/03/09 06:17:44;;;;;;;16.85;4.68;;;;;;;17.68;56.49;98019.91;7395312;19;20018;-55
2024/03/09 06:20:12;;;;;;;17.45;6.40;;;;;;;17.78;56.70;98023.63;7395581;19;20489;-55
2024/03/09 06:22:42;;;;;;;32.00;5.75;;;;;;;18.78;53.56;98022.47;7395891;19;20014;-55
2024/03/09 06:25:14;;;;;;;17.30;7.00;;;;;;;18.52;54.35;98014.59;7395082;19;20007;-55
2024/03/09 06:27:40;;;;;;;13.05;5.38;;;;;;;17.44;56.92;98012.06;7397898;19;20488;-55
2024/03/09 06:30:13;;;;;;;13.18;4.95;;;;;;;17.01;60.99;98003.91;7394132;19;20015;-55
2024/03/09 06:32:39;;;;;;;18.95;5.72;;;;;;;17.26;60.49;98002.00;7394517;19;20014;-55
2024/03/09 06:35:07;;;;;;;9.32;5.25;;;;;;;16.65;63.84;97996.44;7395345;19;20043;-55
2024/03/09 06:37:33;;;;;;;13.35;6.57;;;;;;;17.78;61.35;98001.09;7396563;19;20350;-55
2024/03/09 06:40:00;;;;;;;18.73;6.63;;;;;;;17.20;61.77;97998.63;7393839;19;20070;-55
2024/03/09 06:42:27;;;;;;;8.68;6.38;;;;;;;17.27;62.37;98009.13;7394147;19;20020;-54
2024/03/09 06:44:53;;;;;;;13.85;6.75;;;;;;;16.96;64.40;97999.22;7392713;19;20027;-55
2024/03/09 06:47:20;;;;;;;30.70;6.10;;;;;;;16.51;68.36;97997.94;7394848;19;20019;-55
2024/03/09 06:49:46;;;;;;;15.10;6.05;;;;;;;16.97;67.61;97997.91;7393667;19;20383;-55
2024/03/09 06:52:12;;;;;;;13.90;6.35;;;;;;;17.28;62.67;97990.94;7394455;19;20015;-55
2024/03/09 06:54:38;;;;;;;21.88;6.22;;;;;;;17.07;65.27;97993.22;7394245;19;20645;-55
2024/03/09 06:57:05;;;;;;;6.78;3.78;;;;;;;18.18;61.05;97996.19;7396142;19;20002;-55
2024/03/09 06:59:32;;;;;;;18.90;5.68;;;;;;;18.52;58.82;97997.69;7394878;19;20011;-54
2024/03/09 07:01:59;;;;;;;13.32;6.32;;;;;;;19.84;54.98;97990.38;7394288;19;20025;-54
2024/03/09 07:04:25;;;;;;;18.08;5.53;;;;;;;18.50;56.08;97989.81;7391882;19;20010;-55
2024/03/09 07:06:52;;;;;;;19.50;6.55;;;;;;;18.28;58.56;97985.03;7391113;19;20015;-55
2024/03/09 07:09:19;;;;;;;14.23;6.97;;;;;;;17.84;59.67;97998.06;7393274;19;20023;-55
2024/03/09 07:11:46;;;;;;;10.50;4.72;;;;;;;18.12;60.56;97992.09;7393294;19;20074;-55
2024/03/09 07:14:12;;;;;;;9.23;4.80;;;;;;;19.07;57.25;97989.69;7393950;19;20021;-55
2024/03/09 07:16:39;;;;;;;14.85;5.15;;;;;;;18.59;57.84;97994.81;7393846;19;20013;-55
2024/03/09 07:19:05;;;;;;;7.38;3.38;;;;;;;18.81;56.59;97993.13;7391857;19;20013;-55
2024/03/09 07:21:32;;;;;;;25.90;5.15;;;;;;;18.60;58.22;97990.66;7398515;19;20007;-55
2024/03/09 07:23:58;;;;;;;21.48;6.53;;;;;;;18.44;57.82;97986.47;7392465;19;20014;-54
2024/03/09 07:26:25;;;;;;;22.27;6.38;;;;;;;19.89;54.81;97978.06;7393854;19;20011;-55
2024/03/09 07:28:53;;;;;;;21.63;6.47;;;;;;;18.60;56.87;97981.47;7392595;19;20014;-55
2024/03/09 07:31:22;;;;;;;15.05;5.25;;;;;;;18.07;59.28;97976.91;7394809;19;20010;-54
2024/03/09 07:33:53;;;;;;;10.13;5.35;;;;;;;18.03;60.62;97970.94;7393290;19;20015;-55
2024/03/09 07:36:20;;;;;;;23.90;7.00;;;;;;;19.86;55.86;97968.66;7395997;19;20027;-55
2024/03/09 07:38:48;;;;;;;11.27;4.05;;;;;;;20.80;52.20;97963.31;7392094;19;20006;-55
2024/03/09 07:41:20;;;;;;;12.15;4.38;;;;;;;20.30;53.71;97957.34;7395384;19;20017;-55
2024/03/09 07:43:47;;;;;;;16.20;4.15;;;;;;;21.91;48.68;97969.53;7392475;19;20006;-55
2024/03/09 07:46:14;;;;;;;18.48;6.03;;;;;;;21.33;49.06;97962.41;7391737;19;20011;-56
2024/03/09 07:48:40;;;;;;;16.48;7.68;;;;;;;21.05;49.64;97956.09;7392428;19;20359;-55
2024/03/09 07:51:10;;;;;;;19.95;6.18;;;;;;;20.89;49.86;97966.19;7390902;19;20646;-55
2024/03/09 07:53:36;;;;;;;18.20;5.65;;;;;;;21.46;48.45;97964.78;7396560;19;20628;-55
2024/03/09 07:56:03;;;;;;;11.85;5.00;;;;;;;21.58;47.44;97965.66;7392225;19;20409;-55
2024/03/09 07:58:29;;;;;;;15.82;5.50;;;;;;;21.02;48.21;97971.41;7391321;19;20021;-55
2024/03/09 08:00:55;;;;;;;15.10;5.20;;;;;;;21.18;48.10;97969.06;7391384;19;20017;-55
2024/03/09 08:03:22;;;;;;;13.30;5.60;;;;;;;21.41;47.65;97958.06;7391178;19;20011;-55
2024/03/09 08:05:49;;;;;;;13.02;5.93;;;;;;;22.27;46.09;97960.78;7391432;19;20038;-55
2024/03/09 08:08:17;;;;;;;10.25;4.85;;;;;;;22.87;44.93;97964.28;7391305;19;20358;-55
2024/03/09 08:10:52;;;;;;;10.02;3.40;;;;;;;22.69;44.25;97965.88;7390513;19;20011;-55
2024/03/09 08:13:19;;;;;;;32.40;6.93;;;;;;;25.68;40.57;97954.31;7390741;19;20010;-55
2024/03/09 08:15:46;;;;;;;9.35;5.38;;;;;;;26.56;38.35;97953.53;7389372;19;20011;-55
2024/03/09 08:18:12;;;;;;;5.40;4.35;;;;;;;26.04;38.25;97953.50;7388232;19;20490;-55
2024/03/09 08:20:38;;;;;;;13.45;5.90;;;;;;;26.44;37.97;97955.00;7387980;19;20074;-55
2024/03/09 08:23:06;;;;;;;20.60;6.68;;;;;;;27.14;36.48;97955.91;7387162;19;20022;-55
2024/03/09 08:25:32;;;;;;;12.43;5.22;;;;;;;27.05;35.88;97949.03;7387933;19;20491;-55
2024/03/09 08:28:01;;;;;;;14.27;4.18;;;;;;;22.56;41.40;97955.75;7391193;19;20011;-55
2024/03/09 08:30:27;;;;;;;9.68;5.20;;;;;;;22.52;41.70;97966.81;7391421;19;20577;-55
2024/03/09 08:32:54;;;;;;;17.52;4.97;;;;;;;22.49;41.93;97959.50;7388108;19;20349;-55
2024/03/09 08:35:22;;;;;;;27.00;5.57;;;;;;;22.63;42.16;97956.19;7389802;19;20037;-55
2024/03/09 08:37:50;;;;;;;18.00;4.88;;;;;;;20.97;44.63;97955.47;7391449;19;20015;-55
2024/03/09 08:40:18;;;;;;;22.05;6.03;;;;;;;20.79;45.63;97956.91;7393951;19;20013;-55
2024/03/09 08:42:52;;;;;;;29.05;6.93;;;;;;;20.83;45.96;97951.56;7395087;19;20021;-55
2024/03/09 08:45:20;;;;;;;22.58;6.45;;;;;;;20.64;46.71;97945.84;7395693;19;20010;-55
2024/03/09 08:47:47;;;;;;;22.70;4.80;;;;;;;21.37;45.52;97952.13;7394084;19;20011;-55
2024/03/09 08:50:13;;;;;;;9.15;4.43;;;;;;;20.54;46.92;97945.06;7391781;19;20015;-55
2024/03/09 08:52:40;;;;;;;21.85;6.93;;;;;;;20.56;47.35;97948.06;7389770;19;20007;-55
2024/03/09 08:55:10;;;;;;;8.82;4.53;;;;;;;20.16;47.54;97954.09;7390401;19;20002;-55
2024/03/09 08:57:38;;;;;;;15.18;5.53;;;;;;;20.25;48.08;97944.22;7393963;19;20038;-55
2024/03/09 09:00:06;;;;;;;20.40;6.30;;;;;;;19.42;50.12;97950.97;7396331;19;20002;-55
2024/03/09 09:02:33;;;;;;;19.75;6.18;;;;;;;18.92;51.80;97951.09;7396048;19;20013;-55
2024/03/09 09:04:59;;;;;;;25.30;6.97;;;;;;;18.76;52.88;97954.63;7390908;19;20015;-55
2024/03/09 09:07:25;;;;;;;18.13;5.85;;;;;;;18.93;52.86;97951.81;7392276;19;20015;-56
2024/03/09 09:09:52;;;;;;;39.70;5.78;;;;;;;19.21;53.28;97948.53;7393971;19;20565;-55
2024/03/09 09:12:18;;;;;;;20.35;6.65;;;;;;;19.35;52.89;97938.44;7399018;19;20013;-55
2024/03/09 09:14:44;;;;;;;22.52;7.32;;;;;;;18.61;55.64;97951.94;7394635;19;20024;-55
2024/03/09 09:17:11;;;;;;;12.60;5.13;;;;;;;20.13;52.76;97938.34;7395092;19;20006;-55
2024/03/09 09:19:38;;;;;;;17.80;6.35;;;;;;;20.08;52.51;97941.41;7394661;19;20006;-56
2024/03/09 09:22:06;;;;;;;11.73;6.70;;;;;;;18.59;56.28;97940.50;7396273;19;20018;-56
2024/03/09 09:24:33;;;;;;;29.40;8.48;;;;;;;19.58;54.96;97940.97;7395926;19;20023;-56
2024/03/09 09:26:59;;;;;;;22.20;6.10;;;;;;;19.09;55.10;97946.78;7398278;19;20025;-56
2024/03/09 09:29:28;;;;;;;24.90;6.68;;;;;;;19.71;54.51;97939.88;7397857;19;20014;-55
2024/03/09 09:32:01;;;;;;;20.02;6.47;;;;;;;19.76;54.33;97956.56;7397140;19;20013;-55
2024/03/09 09:34:33;;;;;;;13.63;5.05;;;;;;;19.80;54.19;97944.81;7396541;19;20017;-55
2024/03/09 09:36:59;;;;;;;25.63;6.63;;;;;;;18.58;59.04;97955.94;7396657;19;20539;-56
2024/03/09 09:39:28;;;;;;;11.82;5.05;;;;;;;18.68;59.11;97948.31;7395680;19;20046;-56
2024/03/09 09:41:58;;;;;;;15.73;7.10;;;;;;;18.84;59.94;97950.41;7396662;19;20010;-56
2024/03/09 09:44:26;;;;;;;20.38;5.45;;;;;;;18.54;60.75;97955.56;7394151;19;20014;-56
2024/03/09 09:46:56;;;;;;;20.83;8.38;;;;;;;18.63;61.75;97947.22;7396186;19;20047;-55
2024/03/09 09:49:26;;;;;;;18.48;4.45;;;;;;;18.62;62.83;97951.38;7397236;19;20455;-55
2024/03/09 09:51:53;;;;;;;8.80;4.47;;;;;;;19.20;58.09;97946.28;7396481;19;20017;-55
2024/03/09 09:54:23;;;;;;;12.88;4.57;;;;;;;18.92;60.46;97941.88;7396681;19;20010;-56
2024/03/09 09:56:50;;;;;;;13.00;5.38;;;;;;;17.83;67.52;97941.00;7398080;19;20019;-55
2024/03/09 09:59:17;;;;;;;13.35;4.88;;;;;;;18.48;66.17;97947.34;7396287;19;20371;-56
2024/03/09 10:01:43;;;;;;;26.85;5.28;;;;;;;18.66;64.45;97950.97;7392860;19;20078;-56
2024/03/09 10:04:10;;;;;;;12.07;3.22;;;;;;;18.43;64.46;97950.38;7394287;19;20022;-56
2024/03/09 10:06:36;;;;;;;22.48;5.00;;;;;;;20.76;58.08;97937.56;7395306;19;20308;-55
2024/03/09 10:09:03;;;;;;;19.20;6.70;;;;;;;21.34;55.24;97936.31;7393617;19;20031;-56
2024/03/09 10:11:31;;;;;;;17.83;5.90;;;;;;;21.57;53.87;97935.84;7394693;19;20311;-56
2024/03/09 10:13:59;;;;;;;12.88;4.78;;;;;;;22.12;51.68;97932.78;7397787;19;20025;-56
2024/03/09 10:16:27;;;;;;;10.13;3.28;;;;;;;21.61;52.45;97942.53;7395146;19;20006;-55
2024/03/09 10:18:55;;;;;;;12.50;5.72;;;;;;;21.17;53.28;97944.19;7396003;19;20416;-56
2024/03/09 10:21:37;;;;;;;9.25;5.78;;;;;;;21.94;51.16;97928.66;7399045;19;20010;-56
2024/03/09 10:24:05;;;;;;;14.27;6.40;;;;;;;23.92;47.32;97929.38;7394022;19;20034;-55
2024/03/09 10:26:31;;;;;;;22.58;6.57;;;;;;;24.18;46.51;97932.41;7396627;19;20018;-55
2024/03/09 10:29:03;;;;;;;12.52;5.82;;;;;;;24.83;45.20;97917.97;7394776;19;20011;-55
2024/03/09 10:31:32;;;;;;;10.15;6.50;;;;;;;23.83;45.63;97927.38;7398804;19;20408;-55
2024/03/09 10:33:58;;;;;;;14.95;6.03;;;;;;;23.72;45.61;97922.38;7395460;19;20026;-56
2024/03/09 10:36:25;;;;;;;29.38;8.18;;;;;;;24.73;44.17;97917.34;7398270;19;20042;-55
2024/03/09 10:38:54;;;;;;;18.98;5.93;;;;;;;24.21;45.32;97916.97;7394595;19;20015;-55
2024/03/09 10:41:26;;;;;;;14.48;6.57;;;;;;;24.76;43.98;97896.19;7393332;19;20018;-55
2024/03/09 10:43:54;;;;;;;20.50;5.05;;;;;;;23.92;45.66;97912.31;7394025;19;20070;-55
2024/03/09 10:46:25;;;;;;;18.48;5.75;;;;;;;23.85;46.38;97907.59;7394570;19;20455;-56
2024/03/09 10:48:55;;;;;;;20.50;4.78;;;;;;;23.86;46.46;97905.50;7393198;19;20041;-56
2024/03/09 10:51:30;;;;;;;21.85;7.13;;;;;;;23.84;46.19;97908.97;7393597;19;20492;-55
2024/03/09 10:54:17;;;;;;;12.73;4.35;;;;;;;25.77;43.38;97907.78;7395292;19;20466;-55
2024/03/09 10:56:46;;;;;;;11.02;5.30;;;;;;;25.85;41.86;97908.22;7394685;19;20019;-56
2024/03/09 10:59:13;;;;;;;23.63;7.15;;;;;;;26.15;41.24;97912.75;7394095;19;20352;-56
2024/03/09 11:01:41;;;;;;;5.15;3.17;;;;;;;27.10;39.73;97918.53;7394536;19;20010;-55
2024/03/09 11:04:08;;;;;;;18.25;5.72;;;;;;;27.68;38.60;97920.75;7393421;19;20006;-55
2024/03/09 11:06:34;;;;;;;18.05;4.82;;;;;;;26.56;39.51;97924.25;7396046;19;20022;-55
2024/03/09 11:09:03;;;;;;;31.30;7.38;;;;;;;26.50;39.04;97916.09;7393363;19;20801;-55
2024/03/09 11:11:31;;;;;;;20.73;6.18;;;;;;;26.67;39.23;97927.00;7391734;19;20014;-56
2024/03/09 11:14:02;;;;;;;17.50;5.78;;;;;;;26.89;38.70;97925.34;7393726;19;20022;-56
2024/03/09 11:16:29;;;;;;;;;;;;;;;25.63;39.88;97915.50;7394206;19;20099;-55
2024/03/09 11:18:55;;;;;;;9.15;3.58;;;;;;;25.78;40.10;97918.53;7394719;19;20013;-55
2024/03/09 11:21:26;;;;;;;16.60;5.22;;;;;;;25.20;41.29;97904.50;7391473;19;20011;-56
2024/03/09 11:23:59;;;;;;;11.18;4.45;;;;;;;26.09;40.03;97903.88;7392669;19;20018;-56
2024/03/09 11:26:26;;;;;;;12.20;4.05;;;;;;;26.22;40.17;97889.66;7394345;19;20050;-56
2024/03/09 11:28:57;;;;;;;16.50;4.88;;;;;;;27.83;38.01;97896.44;7392202;19;20034;-56
2024/03/09 11:31:33;;;;;;;9.73;3.20;;;;;;;27.34;37.92;97899.75;7391794;19;20353;-56
2024/03/09 11:34:07;;;;;;;8.23;3.22;;;;;;;25.64;40.19;97897.78;7390436;19;20002;-56
2024/03/09 11:36:37;;;;;;;18.88;5.25;;;;;;;25.24;40.39;97901.88;7394024;19;20014;-56